createdAt,value
2023-04-27T00:00:36.363Z,18.83
2023-04-27T00:03:16.504Z,18.40
2023-04-27T00:05:43.445Z,19.73
2023-04-27T00:08:09.625Z,21.00
2023-04-27T00:10:36.049Z,15.20
2023-04-27T00:13:02.190Z,17.80
2023-04-27T00:15:28.683Z,18.17
2023-04-27T00:17:55.118Z,15.60
2023-04-27T00:20:21.580Z,16.63
2023-04-27T00:22:47.695Z,15.53
2023-04-27T00:25:14.115Z,16.30
2023-04-27T00:27:40.531Z,19.10
2023-04-27T00:30:07.616Z,16.27
2023-04-27T00:32:33.711Z,15.70
2023-04-27T00:35:00.252Z,16.67
2023-04-27T00:37:26.358Z,16.53
2023-04-27T00:39:52.740Z,17.00
2023-04-27T00:42:19.081Z,18.57
2023-04-27T00:44:46.687Z,19.00
2023-04-27T00:47:13.453Z,18.40
2023-04-27T00:49:40.331Z,22.03
2023-04-27T00:52:06.807Z,14.60
2023-04-27T00:54:33.499Z,14.07
2023-04-27T00:56:59.896Z,15.67
2023-04-27T00:59:26.230Z,15.80
2023-04-27T01:01:54.342Z,14.30
2023-04-27T01:04:21.135Z,16.10
2023-04-27T01:06:47.266Z,16.13
2023-04-27T01:09:14.077Z,13.30
2023-04-27T01:11:40.411Z,13.90
2023-04-27T01:14:07.296Z,15.10
2023-04-27T01:16:34.628Z,17.23
2023-04-27T01:19:02.114Z,14.87
2023-04-27T01:21:28.249Z,13.73
2023-04-27T01:23:54.757Z,15.80
2023-04-27T01:26:21.741Z,17.33
2023-04-27T01:28:48.533Z,12.20
2023-04-27T01:31:14.799Z,13.03
2023-04-27T01:33:41.789Z,17.87
2023-04-27T01:36:08.827Z,14.20
2023-04-27T01:38:35.650Z,13.60
2023-04-27T01:41:04.059Z,15.27
2023-04-27T01:43:31.452Z,13.93
2023-04-27T01:46:06.983Z,13.40
2023-04-27T01:48:34.268Z,14.30
2023-04-27T01:51:00.357Z,15.43
2023-04-27T01:53:27.039Z,12.07
2023-04-27T01:55:53.553Z,14.50
2023-04-27T01:58:20.151Z,10.63
2023-04-27T02:00:47.662Z,10.50
2023-04-27T02:03:14.287Z,12.40
2023-04-27T02:05:41.035Z,11.77
2023-04-27T02:08:07.414Z,13.87
2023-04-27T02:10:35.039Z,11.27
2023-04-27T02:13:01.841Z,12.70
2023-04-27T02:15:27.990Z,11.00
2023-04-27T02:17:54.837Z,11.50
2023-04-27T02:20:20.961Z,11.93
2023-04-27T02:22:47.670Z,10.97
2023-04-27T02:25:14.693Z,14.43
2023-04-27T02:27:42.854Z,12.93
2023-04-27T02:30:11.024Z,12.93
2023-04-27T02:32:38.202Z,8.33
2023-04-27T02:35:04.793Z,14.47
2023-04-27T02:37:31.171Z,9.77
2023-04-27T02:39:57.291Z,13.30
2023-04-27T02:42:23.728Z,10.23
2023-04-27T02:44:49.881Z,10.73
2023-04-27T02:47:16.411Z,10.20
2023-04-27T02:49:42.694Z,9.10
2023-04-27T02:52:09.424Z,12.17
2023-04-27T02:54:35.502Z,13.37
2023-04-27T02:57:01.955Z,12.33
2023-04-27T02:59:28.081Z,9.33
2023-04-27T03:01:54.440Z,12.57
2023-04-27T03:04:20.707Z,10.17
2023-04-27T03:06:48.288Z,11.33
2023-04-27T03:09:15.068Z,13.23
2023-04-27T03:11:41.904Z,13.30
2023-04-27T03:14:07.994Z,11.53
2023-04-27T03:16:34.863Z,8.67
2023-04-27T03:19:01.095Z,10.63
2023-04-27T03:21:27.903Z,9.23
2023-04-27T03:23:54.105Z,12.57
2023-04-27T03:26:23.095Z,11.43
2023-04-27T03:28:49.165Z,12.90
2023-04-27T03:31:15.537Z,11.20
2023-04-27T03:33:41.790Z,10.10
2023-04-27T03:36:09.858Z,8.13
2023-04-27T03:38:36.413Z,10.07
2023-04-27T03:41:03.797Z,9.67
2023-04-27T03:43:29.927Z,8.67
2023-04-27T03:45:56.641Z,11.00
2023-04-27T03:48:22.987Z,10.97
2023-04-27T03:50:51.660Z,9.70
2023-04-27T03:53:17.851Z,10.73
2023-04-27T03:55:44.612Z,11.17
2023-04-27T03:58:11.701Z,9.97
2023-04-27T04:00:48.859Z,11.00
2023-04-27T04:03:15.284Z,11.00
2023-04-27T04:05:41.960Z,9.20
2023-04-27T04:08:08.432Z,12.33
2023-04-27T04:10:34.828Z,10.27
2023-04-27T04:13:00.913Z,10.27
2023-04-27T04:15:27.382Z,8.23
2023-04-27T04:17:53.615Z,10.10
2023-04-27T04:20:20.842Z,8.77
2023-04-27T04:22:47.406Z,9.63
2023-04-27T04:25:13.983Z,10.60
2023-04-27T04:27:41.134Z,9.73
2023-04-27T04:30:07.968Z,7.20
2023-04-27T04:32:38.539Z,11.37
2023-04-27T04:35:06.401Z,9.33
2023-04-27T04:37:34.765Z,8.77
2023-04-27T04:40:08.129Z,9.47
2023-04-27T04:42:36.737Z,10.83
2023-04-27T04:45:03.752Z,10.77
2023-04-27T04:47:33.479Z,10.03
2023-04-27T04:50:00.436Z,9.60
2023-04-27T04:52:29.737Z,11.33
2023-04-27T04:54:56.524Z,10.27
2023-04-27T04:57:22.730Z,7.73
2023-04-27T04:59:49.334Z,9.27
2023-04-27T05:02:15.601Z,11.97
2023-04-27T05:04:42.530Z,11.57
2023-04-27T05:07:11.949Z,10.20
2023-04-27T05:09:40.288Z,9.47
2023-04-27T05:12:06.682Z,9.50
2023-04-27T05:14:33.321Z,9.37
2023-04-27T05:16:59.703Z,9.00
2023-04-27T05:19:28.686Z,9.00
2023-04-27T05:21:54.793Z,12.30
2023-04-27T05:24:21.488Z,7.47
2023-04-27T05:26:47.846Z,9.60
2023-04-27T05:29:14.693Z,8.33
2023-04-27T05:31:41.277Z,6.80
2023-04-27T05:34:09.319Z,7.47
2023-04-27T05:36:36.007Z,6.80
2023-04-27T05:39:02.954Z,6.77
2023-04-27T05:41:30.065Z,10.10
2023-04-27T05:43:56.462Z,8.47
2023-04-27T05:46:22.655Z,10.13
2023-04-27T05:48:49.311Z,10.83
2023-04-27T05:51:15.932Z,8.37
2023-04-27T05:53:42.380Z,8.47
2023-04-27T05:56:10.931Z,9.37
2023-04-27T05:58:37.346Z,8.40
2023-04-27T06:01:03.566Z,12.30
2023-04-27T06:03:30.655Z,12.23
2023-04-27T06:05:59.153Z,10.67
2023-04-27T06:08:26.654Z,8.67
2023-04-27T06:10:53.702Z,7.37
2023-04-27T06:13:20.345Z,11.67
2023-04-27T06:15:46.932Z,6.60
2023-04-27T06:18:13.812Z,7.90
2023-04-27T06:20:41.305Z,8.00
2023-04-27T06:23:08.202Z,8.13
2023-04-27T06:25:36.746Z,6.70
2023-04-27T06:28:03.481Z,6.37
2023-04-27T06:30:29.537Z,9.40
2023-04-27T06:32:55.882Z,9.03
2023-04-27T06:35:22.074Z,5.63
2023-04-27T06:37:48.457Z,5.30
2023-04-27T06:40:14.846Z,7.50
2023-04-27T06:42:41.366Z,7.80
2023-04-27T06:45:08.636Z,6.60
2023-04-27T06:47:35.107Z,5.13
2023-04-27T06:50:01.421Z,6.37
2023-04-27T06:52:27.772Z,9.40
2023-04-27T06:54:53.928Z,6.07
2023-04-27T06:57:20.334Z,7.00
2023-04-27T06:59:46.401Z,7.40
2023-04-27T07:02:12.812Z,8.73
2023-04-27T07:04:39.467Z,6.07
2023-04-27T07:07:05.896Z,7.17
2023-04-27T07:09:32.586Z,8.60
2023-04-27T07:12:00.549Z,5.83
2023-04-27T07:14:26.857Z,6.77
2023-04-27T07:16:53.337Z,5.07
2023-04-27T07:19:19.546Z,9.87
2023-04-27T07:21:45.932Z,13.87
2023-04-27T07:24:12.031Z,7.20
2023-04-27T07:26:38.847Z,7.03
2023-04-27T07:29:14.448Z,6.70
2023-04-27T07:31:51.380Z,4.70
2023-04-27T07:34:18.439Z,4.03
2023-04-27T07:36:45.022Z,5.57
2023-04-27T07:39:11.628Z,4.67
2023-04-27T07:41:38.495Z,5.47
2023-04-27T07:44:04.729Z,5.53
2023-04-27T07:46:32.115Z,6.13
2023-04-27T07:48:59.947Z,4.17
2023-04-27T07:51:27.911Z,6.83
2023-04-27T07:53:54.577Z,5.40
2023-04-27T07:56:21.267Z,4.70
2023-04-27T07:58:47.412Z,8.03
2023-04-27T08:01:13.796Z,8.27
2023-04-27T08:03:40.209Z,6.87
2023-04-27T08:06:07.522Z,6.50
2023-04-27T08:08:33.787Z,8.10
2023-04-27T08:11:00.171Z,6.43
2023-04-27T08:13:26.532Z,5.63
2023-04-27T08:15:57.595Z,4.37
2023-04-27T08:18:24.875Z,6.30
2023-04-27T08:20:51.808Z,9.70
2023-04-27T08:23:18.090Z,7.93
2023-04-27T08:25:44.400Z,4.80
2023-04-27T08:28:10.588Z,5.37
2023-04-27T08:30:37.006Z,11.80
2023-04-27T08:33:03.239Z,5.33
2023-04-27T08:35:29.663Z,8.07
2023-04-27T08:37:56.059Z,5.05
2023-04-27T08:40:24.110Z,4.40
2023-04-27T08:42:55.676Z,5.68
2023-04-27T08:45:23.556Z,5.80
2023-04-27T08:47:49.944Z,5.82
2023-04-27T08:50:16.797Z,3.70
2023-04-27T08:52:48.188Z,5.38
2023-04-27T08:55:16.645Z,5.25
2023-04-27T08:57:53.905Z,4.70
2023-04-27T09:00:20.581Z,7.97
2023-04-27T09:02:47.666Z,5.53
2023-04-27T09:05:16.012Z,7.03
2023-04-27T09:07:42.176Z,4.15
2023-04-27T09:10:08.988Z,3.67
2023-04-27T09:12:35.145Z,5.43
2023-04-27T09:15:04.478Z,4.63
2023-04-27T09:17:30.817Z,4.03
2023-04-27T09:20:08.243Z,3.83
2023-04-27T09:23:01.993Z,3.80
2023-04-27T09:25:30.693Z,6.17
2023-04-27T09:27:58.478Z,6.20
2023-04-27T09:30:26.148Z,3.53
2023-04-27T09:32:55.287Z,5.73
2023-04-27T09:35:24.459Z,3.63
2023-04-27T09:37:52.149Z,5.23
2023-04-27T09:40:27.294Z,2.53
2023-04-27T09:42:54.707Z,3.07
2023-04-27T09:45:22.954Z,3.00
2023-04-27T09:47:49.069Z,2.90
2023-04-27T09:50:15.583Z,2.47
2023-04-27T09:52:42.052Z,3.87
2023-04-27T09:55:13.253Z,3.63
2023-04-27T09:57:50.815Z,4.00
2023-04-27T10:00:29.622Z,2.73
2023-04-27T10:03:14.644Z,4.63
2023-04-27T10:06:18.663Z,5.83
2023-04-27T10:08:45.159Z,4.37
2023-04-27T10:11:16.760Z,4.87
2023-04-27T10:13:54.347Z,3.20
2023-04-27T10:16:21.885Z,5.33
2023-04-27T10:18:55.465Z,3.20
2023-04-27T10:21:23.055Z,3.53
2023-04-27T10:23:51.039Z,7.70
2023-04-27T10:26:26.944Z,2.67
2023-04-27T10:29:08.004Z,2.70
2023-04-27T10:31:35.141Z,2.53
2023-04-27T10:34:09.297Z,2.90
2023-04-27T10:36:40.149Z,2.80
2023-04-27T10:39:24.059Z,1.73
2023-04-27T10:41:56.386Z,3.53
2023-04-27T10:44:30.315Z,3.20
2023-04-27T10:46:59.885Z,4.40
2023-04-27T10:49:29.908Z,4.27
2023-04-27T10:51:58.566Z,2.97
2023-04-27T10:54:27.674Z,3.37
2023-04-27T10:57:01.349Z,2.13
2023-04-27T10:59:27.456Z,4.03
2023-04-27T11:01:53.832Z,2.60
2023-04-27T11:04:19.978Z,3.77
2023-04-27T11:06:46.444Z,2.97
2023-04-27T11:09:26.764Z,3.70
2023-04-27T11:11:53.396Z,4.23
2023-04-27T11:14:20.730Z,4.03
2023-04-27T11:16:48.079Z,4.67
2023-04-27T11:19:14.719Z,5.27
2023-04-27T11:21:41.654Z,6.10
2023-04-27T11:24:09.252Z,5.33
2023-04-27T11:26:35.975Z,2.97
2023-04-27T11:29:11.747Z,4.23
2023-04-27T11:31:50.548Z,4.60
2023-04-27T11:34:20.511Z,3.63
2023-04-27T11:37:16.833Z,4.50
2023-04-27T11:39:45.152Z,5.27
2023-04-27T11:42:18.914Z,2.10
2023-04-27T11:45:12.251Z,4.97
2023-04-27T11:47:41.657Z,3.33
2023-04-27T11:50:08.155Z,4.97
2023-04-27T11:52:36.679Z,8.63
2023-04-27T11:55:03.914Z,4.57
2023-04-27T11:57:32.304Z,3.33
2023-04-27T12:00:01.562Z,4.17
2023-04-27T12:02:30.435Z,4.17
2023-04-27T12:04:58.716Z,5.10
2023-04-27T12:07:25.385Z,5.77
2023-04-27T12:09:51.662Z,3.97
2023-04-27T12:12:21.295Z,4.37
2023-04-27T12:14:51.320Z,3.97
2023-04-27T12:17:18.071Z,4.43
2023-04-27T12:19:44.314Z,3.40
2023-04-27T12:22:11.230Z,4.50
2023-04-27T12:24:37.464Z,5.03
2023-04-27T12:27:04.504Z,2.70
2023-04-27T12:29:33.871Z,4.57
2023-04-27T12:32:00.276Z,6.30
2023-04-27T12:34:27.567Z,3.73
2023-04-27T12:36:55.196Z,4.23
2023-04-27T12:39:26.019Z,3.40
2023-04-27T12:41:53.401Z,3.70
2023-04-27T12:44:20.612Z,3.70
2023-04-27T12:46:50.186Z,1.50
2023-04-27T12:49:16.852Z,3.70
2023-04-27T12:51:44.831Z,5.17
2023-04-27T12:54:12.401Z,3.10
2023-04-27T12:56:39.388Z,3.87
2023-04-27T12:59:05.600Z,4.03
2023-04-27T13:01:32.574Z,3.13
2023-04-27T13:04:01.108Z,3.77
2023-04-27T13:06:27.941Z,3.40
2023-04-27T13:08:54.150Z,4.50
2023-04-27T13:11:20.584Z,3.40
2023-04-27T13:13:47.254Z,2.43
2023-04-27T13:16:15.180Z,2.83
2023-04-27T13:18:46.688Z,2.50
2023-04-27T13:21:13.884Z,5.07
2023-04-27T13:23:41.421Z,6.27
2023-04-27T13:26:08.193Z,2.10
2023-04-27T13:28:34.410Z,2.33
2023-04-27T13:31:01.110Z,1.73
2023-04-27T13:33:27.515Z,3.63
2023-04-27T13:35:54.164Z,9.07
2023-04-27T13:38:20.688Z,5.55
2023-04-27T13:40:47.149Z,4.30
2023-04-27T13:43:13.442Z,4.60
2023-04-27T13:45:41.725Z,4.80
2023-04-27T13:48:07.871Z,9.70
2023-04-27T13:50:34.413Z,3.73
2023-04-27T13:53:01.131Z,4.93
2023-04-27T13:55:28.046Z,6.10
2023-04-27T13:57:54.272Z,3.87
2023-04-27T14:00:21.065Z,3.67
2023-04-27T14:02:47.239Z,4.97
2023-04-27T14:05:13.784Z,3.43
2023-04-27T14:07:40.091Z,6.97
2023-04-27T14:10:07.228Z,7.47
2023-04-27T14:12:33.438Z,4.57
2023-04-27T14:15:00.052Z,3.57
2023-04-27T14:17:26.326Z,4.80
2023-04-27T14:19:52.784Z,3.43
2023-04-27T14:22:19.100Z,3.20
2023-04-27T14:24:45.861Z,5.73
2023-04-27T14:27:12.148Z,3.83
2023-04-27T14:29:38.813Z,3.13
2023-04-27T14:32:05.611Z,4.27
2023-04-27T14:34:32.155Z,3.20
2023-04-27T14:36:58.912Z,2.67
2023-04-27T14:39:27.456Z,3.47
2023-04-27T14:41:53.854Z,4.67
2023-04-27T14:44:20.489Z,5.30
2023-04-27T14:46:46.704Z,9.00
2023-04-27T14:49:13.368Z,3.77
2023-04-27T14:51:41.464Z,6.20
2023-04-27T14:54:09.326Z,2.70
2023-04-27T14:56:35.990Z,3.03
2023-04-27T14:59:02.603Z,4.03
2023-04-27T15:01:28.823Z,10.50
2023-04-27T15:03:55.977Z,10.17
2023-04-27T15:06:23.502Z,5.17
2023-04-27T15:08:50.042Z,5.27
2023-04-27T15:11:16.369Z,3.30
2023-04-27T15:13:43.958Z,3.27
2023-04-27T15:16:10.335Z,7.97
2023-04-27T15:18:37.097Z,7.37
2023-04-27T15:21:03.694Z,4.00
2023-04-27T15:23:30.221Z,6.97
2023-04-27T15:25:57.855Z,10.30
2023-04-27T15:28:24.660Z,10.50
2023-04-27T15:30:50.942Z,12.03
2023-04-27T15:33:18.245Z,5.60
2023-04-27T15:35:44.450Z,5.97
2023-04-27T15:38:12.658Z,5.30
2023-04-27T15:40:39.327Z,3.17
2023-04-27T15:43:06.161Z,8.57
2023-04-27T15:45:32.524Z,5.57
2023-04-27T15:47:58.937Z,6.60
2023-04-27T15:50:25.353Z,4.13
2023-04-27T15:52:52.197Z,6.97
2023-04-27T15:55:18.493Z,6.20
2023-04-27T15:57:45.058Z,4.87
2023-04-27T16:00:11.940Z,6.03
2023-04-27T16:02:39.698Z,5.33
2023-04-27T16:05:08.105Z,5.00
2023-04-27T16:07:36.228Z,6.60
2023-04-27T16:10:03.440Z,5.73
2023-04-27T16:12:31.155Z,2.90
2023-04-27T16:14:57.345Z,4.97
2023-04-27T16:17:26.082Z,4.73
2023-04-27T16:19:52.823Z,8.43
2023-04-27T16:22:19.373Z,3.67
2023-04-27T16:24:45.536Z,5.50
2023-04-27T16:27:11.969Z,4.80
2023-04-27T16:29:38.796Z,6.23
2023-04-27T16:32:05.947Z,7.43
2023-04-27T16:34:32.394Z,3.73
2023-04-27T16:36:58.896Z,5.27
2023-04-27T16:39:25.024Z,6.40
2023-04-27T16:41:51.787Z,8.70
2023-04-27T16:44:18.148Z,5.03
2023-04-27T16:46:44.830Z,3.23
2023-04-27T16:49:11.034Z,5.63
2023-04-27T16:51:37.501Z,5.90
2023-04-27T16:54:03.870Z,6.40
2023-04-27T16:56:32.904Z,4.10
2023-04-27T16:58:59.428Z,5.20
2023-04-27T17:01:28.872Z,3.53
2023-04-27T17:03:56.591Z,4.77
2023-04-27T17:06:27.528Z,6.40
2023-04-27T17:08:55.428Z,5.50
2023-04-27T17:11:22.167Z,13.50
2023-04-27T17:13:51.632Z,20.97
2023-04-27T17:16:18.925Z,19.27
2023-04-27T17:18:48.233Z,20.40
2023-04-27T17:21:16.364Z,25.93
2023-04-27T17:23:44.071Z,20.83
2023-04-27T17:26:11.344Z,11.13
2023-04-27T17:28:37.735Z,11.40
2023-04-27T17:31:04.224Z,8.73
2023-04-27T17:33:30.629Z,6.17
2023-04-27T17:35:57.253Z,10.93
2023-04-27T17:38:23.522Z,7.20
2023-04-27T17:40:49.940Z,4.20
2023-04-27T17:43:16.127Z,7.27
2023-04-27T17:45:42.753Z,6.37
2023-04-27T17:48:09.064Z,9.93
2023-04-27T17:50:37.163Z,12.20
2023-04-27T17:53:03.461Z,7.77
2023-04-27T17:55:30.558Z,7.07
2023-04-27T17:57:57.000Z,9.43
2023-04-27T18:00:23.538Z,13.27
2023-04-27T18:02:50.295Z,12.93
2023-04-27T18:05:16.990Z,11.83
2023-04-27T18:07:45.378Z,25.47
2023-04-27T18:10:12.065Z,27.23
2023-04-27T18:12:38.315Z,38.90
2023-04-27T18:15:07.667Z,44.63
2023-04-27T18:17:35.870Z,46.47
2023-04-27T18:20:08.733Z,45.40
2023-04-27T18:22:37.762Z,40.73
2023-04-27T18:25:04.711Z,20.53
2023-04-27T18:27:32.081Z,14.10
2023-04-27T18:29:58.501Z,14.90
2023-04-27T18:32:25.012Z,21.43
2023-04-27T18:34:51.554Z,23.83
2023-04-27T18:37:17.709Z,89.57
2023-04-27T18:39:44.283Z,91.03
2023-04-27T18:42:10.635Z,30.73
2023-04-27T18:44:37.222Z,15.67
2023-04-27T18:47:03.934Z,14.30
2023-04-27T18:49:31.420Z,14.47
2023-04-27T18:51:58.100Z,21.57
2023-04-27T18:54:24.536Z,101.70
2023-04-27T18:56:53.026Z,88.33
2023-04-27T18:59:19.825Z,47.40
2023-04-27T19:01:46.103Z,59.67
2023-04-27T19:04:13.944Z,57.53
2023-04-27T19:06:40.606Z,71.83
2023-04-27T19:09:08.555Z,42.27
2023-04-27T19:11:35.597Z,33.87
2023-04-27T19:14:02.220Z,34.30
2023-04-27T19:16:28.463Z,37.00
2023-04-27T19:18:55.429Z,34.67
2023-04-27T19:21:21.765Z,33.90
2023-04-27T19:23:48.481Z,26.73
2023-04-27T19:26:14.898Z,24.73
2023-04-27T19:28:41.665Z,16.20
2023-04-27T19:31:08.265Z,17.60
2023-04-27T19:33:35.257Z,24.27
2023-04-27T19:36:01.511Z,23.53
2023-04-27T19:38:28.868Z,19.50
2023-04-27T19:40:55.363Z,14.77
2023-04-27T19:43:22.055Z,13.63
2023-04-27T19:45:48.285Z,21.57
2023-04-27T19:48:15.048Z,19.27
2023-04-27T19:50:41.894Z,17.23
2023-04-27T19:53:08.906Z,19.90
2023-04-27T19:55:35.259Z,20.60
2023-04-27T19:58:02.193Z,19.10
2023-04-27T20:00:28.748Z,16.80
2023-04-27T20:02:55.919Z,15.63
2023-04-27T20:05:22.893Z,12.87
2023-04-27T20:07:49.837Z,10.63
2023-04-27T20:10:16.567Z,11.80
2023-04-27T20:12:55.493Z,9.43
2023-04-27T20:15:23.088Z,14.43
2023-04-27T20:17:49.894Z,13.23
2023-04-27T20:20:16.395Z,12.00
2023-04-27T20:22:43.165Z,15.20
2023-04-27T20:25:10.037Z,11.63
2023-04-27T20:27:36.753Z,15.97
2023-04-27T20:30:03.732Z,12.00
2023-04-27T20:32:30.536Z,17.73
2023-04-27T20:34:57.269Z,14.53
2023-04-27T20:37:25.126Z,14.23
2023-04-27T20:39:52.674Z,12.03
2023-04-27T20:42:20.220Z,11.50
2023-04-27T20:44:47.781Z,18.30
2023-04-27T20:47:14.300Z,11.60
2023-04-27T20:49:41.264Z,13.10
2023-04-27T20:52:08.160Z,14.33
2023-04-27T20:54:35.603Z,15.10
2023-04-27T20:57:03.074Z,16.17
2023-04-27T20:59:29.518Z,16.13
2023-04-27T21:01:56.370Z,17.40
2023-04-27T21:04:22.976Z,14.43
2023-04-27T21:06:49.850Z,15.87
2023-04-27T21:09:16.476Z,15.97
2023-04-27T21:11:43.048Z,20.47
2023-04-27T21:14:09.880Z,22.00
2023-04-27T21:16:36.641Z,18.07
2023-04-27T21:19:02.764Z,19.13
2023-04-27T21:21:29.178Z,22.23
2023-04-27T21:24:06.723Z,18.57
2023-04-27T21:26:34.056Z,18.23
2023-04-27T21:29:04.610Z,16.60
2023-04-27T21:31:32.205Z,15.33
2023-04-27T21:33:58.401Z,15.63
2023-04-27T21:36:24.960Z,19.57
2023-04-27T21:38:51.162Z,17.63
2023-04-27T21:41:17.589Z,14.93
2023-04-27T21:43:44.324Z,17.13
2023-04-27T21:46:10.836Z,17.13
2023-04-27T21:48:37.027Z,20.03
2023-04-27T21:51:03.430Z,16.77
2023-04-27T21:53:29.884Z,17.33
2023-04-27T21:55:56.490Z,15.77
2023-04-27T21:58:22.580Z,12.67
2023-04-27T22:00:48.963Z,15.07
2023-04-27T22:03:15.532Z,20.13
2023-04-27T22:05:42.060Z,16.20
2023-04-27T22:08:08.317Z,17.83
2023-04-27T22:10:34.713Z,15.93
2023-04-27T22:13:08.305Z,19.83
2023-04-27T22:15:43.954Z,18.03
2023-04-27T22:18:10.077Z,16.70
2023-04-27T22:20:36.521Z,16.87
2023-04-27T22:23:02.751Z,17.03
2023-04-27T22:25:29.183Z,18.10
2023-04-27T22:27:55.205Z,19.23
2023-04-27T22:30:21.834Z,18.87
2023-04-27T22:32:48.027Z,17.83
2023-04-27T22:35:24.827Z,21.40
2023-04-27T22:37:56.360Z,22.00
2023-04-27T22:40:22.857Z,22.83
2023-04-27T22:42:49.035Z,24.33
2023-04-27T22:45:15.603Z,24.27
2023-04-27T22:47:43.781Z,23.83
2023-04-27T22:50:11.262Z,22.30
2023-04-27T22:52:38.073Z,22.03
2023-04-27T22:55:04.669Z,23.00
2023-04-27T22:57:30.777Z,21.77
2023-04-27T22:59:57.102Z,23.20
2023-04-27T23:02:23.534Z,24.97
2023-04-27T23:04:50.275Z,24.03
2023-04-27T23:07:19.033Z,22.33
2023-04-27T23:09:47.371Z,23.10
2023-04-27T23:12:13.394Z,23.20
2023-04-27T23:14:41.464Z,27.67
2023-04-27T23:17:08.246Z,25.13
2023-04-27T23:19:34.889Z,23.67
2023-04-27T23:22:01.986Z,24.17
2023-04-27T23:24:29.038Z,28.23
2023-04-27T23:26:55.122Z,24.80
2023-04-27T23:29:21.468Z,29.73
2023-04-27T23:31:47.545Z,25.27
2023-04-27T23:34:14.902Z,24.67
2023-04-27T23:36:41.413Z,27.70
2023-04-27T23:39:07.768Z,33.73
2023-04-27T23:41:33.817Z,25.03
2023-04-27T23:44:00.255Z,28.87
2023-04-27T23:46:26.364Z,35.87
2023-04-27T23:48:52.753Z,26.20
2023-04-27T23:51:18.955Z,29.23
2023-04-27T23:53:45.263Z,25.40
2023-04-27T23:56:18.946Z,30.10
2023-04-27T23:58:45.475Z,29.07
